Time;durP1;ratioP1;P1;durP2;ratioP2;P2;SDS_P1;SDS_P2;PMS_P1;PMS_P2;Temp;Humidity;BMP_temperature;BMP_pressure;BME280_temperature;BME280_humidity;BME280_pressure;Samples;Min_cycle;Max_cycle;Signal;HPM_P1;HPM_P2
2023/04/01 00:00:24;;;;;;;14.60;6.50;;;;;;;14.94;43.49;100069.25;5074231;28;20445;-75
2023/04/01 00:02:49;;;;;;;11.32;5.50;;;;;;;15.03;43.04;100064.50;5073822;28;20895;-75
2023/04/01 00:05:16;;;;;;;11.93;5.30;;;;;;;15.06;43.11;100064.88;5073809;28;20456;-75
2023/04/01 00:07:42;;;;;;;14.75;5.00;;;;;;;15.04;43.22;100071.47;5073054;28;20855;-74
2023/04/01 00:10:10;;;;;;;11.30;4.38;;;;;;;14.99;43.61;100065.97;5073533;28;20775;-75
2023/04/01 00:12:36;;;;;;;14.88;4.78;;;;;;;14.91;43.63;100064.38;5056969;28;20375;-75
2023/04/01 00:15:03;;;;;;;13.05;4.50;;;;;;;14.91;44.13;100065.19;5072876;28;20494;-75
2023/04/01 00:17:29;;;;;;;11.55;4.88;;;;;;;14.71;44.87;100049.28;5073193;28;20577;-75
2023/04/01 00:19:56;;;;;;;10.17;5.43;;;;;;;14.60;45.87;100043.78;5073074;28;20935;-74
2023/04/01 00:22:23;;;;;;;13.77;7.30;;;;;;;14.57;46.62;100041.50;5072282;28;20498;-74
2023/04/01 00:24:49;;;;;;;14.30;7.55;;;;;;;14.48;47.26;100040.97;5072419;28;20460;-74
2023/04/01 00:27:15;;;;;;;15.43;7.70;;;;;;;14.45;47.49;100044.03;5072685;28;20394;-75
2023/04/01 00:29:45;;;;;;;14.40;7.90;;;;;;;14.54;47.44;100040.91;5072962;28;20385;-75
2023/04/01 00:32:11;;;;;;;11.02;7.60;;;;;;;14.56;47.29;100031.91;5072974;28;20395;-74
2023/04/01 00:34:37;;;;;;;13.97;7.27;;;;;;;14.50;47.38;100028.22;5072545;28;20390;-75
2023/04/01 00:37:03;;;;;;;14.07;7.90;;;;;;;14.48;47.50;100028.44;5072278;28;20387;-75
2023/04/01 00:39:31;;;;;;;13.75;7.57;;;;;;;14.54;47.69;100024.09;5072311;28;20398;-75
2023/04/01 00:41:57;;;;;;;12.80;7.82;;;;;;;14.53;47.36;100015.28;5072285;28;21038;-74
2023/04/01 00:44:24;;;;;;;13.73;7.38;;;;;;;14.60;47.41;100017.94;5072397;28;20394;-74
2023/04/01 00:46:52;;;;;;;12.82;7.30;;;;;;;14.70;46.93;100022.81;5054593;28;20392;-74
2023/04/01 00:49:20;;;;;;;16.23;7.55;;;;;;;14.73;46.97;100022.41;5072367;28;20386;-75
2023/04/01 00:51:48;;;;;;;18.05;7.88;;;;;;;14.58;47.34;100021.84;5071890;28;20391;-74
2023/04/01 00:54:17;;;;;;;13.60;7.10;;;;;;;14.41;47.79;100027.66;5071872;28;20959;-75
2023/04/01 00:56:51;;;;;;;17.53;7.87;;;;;;;14.40;47.97;100025.19;5071958;28;20477;-75
2023/04/01 00:59:22;;;;;;;14.40;9.07;;;;;;;14.42;47.68;100020.47;5070919;28;20427;-75
2023/04/01 01:01:48;;;;;;;14.15;8.13;;;;;;;14.46;47.48;100013.69;5071766;28;20387;-75
2023/04/01 01:04:27;;;;;;;14.98;7.78;;;;;;;14.60;46.88;100009.94;5069860;28;20468;-75
2023/04/01 01:07:14;;;;;;;13.70;7.28;;;;;;;14.79;46.25;100016.19;5071617;28;20390;-75
2023/04/01 01:09:51;;;;;;;14.05;7.22;;;;;;;14.88;46.25;100008.75;5060413;28;20458;-74
2023/04/01 01:12:26;;;;;;;13.70;7.10;;;;;;;14.86;46.43;99997.47;5079399;28;20429;-74
2023/04/01 01:15:11;;;;;;;14.80;7.43;;;;;;;14.82;46.46;99994.44;5078311;28;20387;-74
2023/04/01 01:18:01;;;;;;;16.92;7.30;;;;;;;14.81;46.78;99999.97;5071819;28;20414;-75
2023/04/01 01:20:35;;;;;;;14.65;7.32;;;;;;;14.91;46.37;99985.13;5071258;28;20875;-75
2023/04/01 01:23:31;;;;;;;12.30;6.90;;;;;;;14.99;46.49;99997.38;5071858;28;20403;-75
2023/04/01 01:26:15;;;;;;;13.43;6.97;;;;;;;14.95;46.35;99995.38;5053634;28;20875;-75
2023/04/01 01:29:04;;;;;;;14.88;7.25;;;;;;;14.85;46.78;99988.63;5071716;28;20393;-75
2023/04/01 01:31:55;;;;;;;14.37;7.30;;;;;;;14.88;47.02;99980.22;5071221;28;20391;-75
2023/04/01 01:34:29;;;;;;;14.70;7.80;;;;;;;14.87;47.03;99977.75;5070809;28;20386;-75
2023/04/01 01:36:59;;;;;;;20.95;9.50;;;;;;;14.80;47.42;99967.16;5070788;28;20902;-75
2023/04/01 01:39:29;;;;;;;18.90;9.27;;;;;;;14.76;47.69;99963.25;5071076;28;20394;-75
2023/04/01 01:41:58;;;;;;;15.40;9.35;;;;;;;14.68;47.76;99968.88;5053346;28;20395;-75
2023/04/01 01:44:28;;;;;;;17.23;9.20;;;;;;;14.65;47.66;99958.63;5070960;28;20470;-74
2023/04/01 01:46:53;;;;;;;15.73;8.90;;;;;;;14.62;47.69;99953.72;5071441;28;20934;-74
2023/04/01 01:49:19;;;;;;;15.37;9.27;;;;;;;14.60;47.42;99950.44;5070745;28;20462;-74
2023/04/01 01:51:45;;;;;;;19.38;9.93;;;;;;;14.66;47.45;99954.94;5071005;28;20461;-74
2023/04/01 01:54:16;;;;;;;16.80;9.57;;;;;;;14.75;46.85;99952.78;5071302;28;20860;-74
2023/04/01 01:56:44;;;;;;;17.88;9.70;;;;;;;14.89;46.57;99949.84;5071035;28;20735;-74
2023/04/01 01:59:11;;;;;;;18.10;10.40;;;;;;;14.78;46.82;99947.84;5070221;28;20379;-74
2023/04/01 02:01:42;;;;;;;20.23;9.90;;;;;;;14.84;46.65;99949.66;5071459;28;20390;-74
2023/04/01 02:04:09;;;;;;;18.90;9.77;;;;;;;14.77;46.26;99946.22;5070584;28;20855;-74
2023/04/01 02:06:38;;;;;;;19.25;10.75;;;;;;;14.79;46.35;99948.69;5071672;28;20410;-74
2023/04/01 02:09:07;;;;;;;17.15;9.82;;;;;;;14.71;46.36;99934.56;5071624;28;20375;-74
2023/04/01 02:11:52;;;;;;;17.98;10.00;;;;;;;14.65;46.93;99946.09;5071119;28;20379;-74
2023/04/01 02:14:23;;;;;;;20.50;10.80;;;;;;;14.53;47.33;99951.28;5071203;28;20393;-74
2023/04/01 02:16:55;;;;;;;19.30;11.32;;;;;;;14.51;47.64;99957.84;5070675;28;21281;-74
2023/04/01 02:19:26;;;;;;;23.23;11.50;;;;;;;14.45;47.51;99948.06;5071409;28;20383;-74
2023/04/01 02:21:57;;;;;;;19.50;10.65;;;;;;;14.36;48.24;99958.13;5071094;28;20386;-74
2023/04/01 02:24:24;;;;;;;19.85;11.00;;;;;;;14.37;48.20;99961.63;5053357;28;20434;-74
2023/04/01 02:26:51;;;;;;;20.53;10.60;;;;;;;14.48;48.12;99967.09;5070723;28;20490;-74
2023/04/01 02:29:20;;;;;;;16.17;10.90;;;;;;;14.49;48.33;99962.56;5071187;28;20498;-74
2023/04/01 02:31:46;;;;;;;18.60;10.48;;;;;;;14.43;48.59;99968.78;5070819;28;20387;-74
2023/04/01 02:34:12;;;;;;;22.77;11.00;;;;;;;14.25;49.24;99974.81;5071338;28;20375;-75
2023/04/01 02:36:38;;;;;;;22.08;10.70;;;;;;;14.41;49.05;99976.19;5071035;28;20455;-74
2023/04/01 02:39:05;;;;;;;20.15;11.40;;;;;;;14.53;48.33;99963.78;5070756;28;20851;-74
2023/04/01 02:41:31;;;;;;;20.00;11.55;;;;;;;14.59;48.33;99962.16;5070847;28;20387;-74
2023/04/01 02:43:58;;;;;;;21.30;11.57;;;;;;;14.60;48.15;99964.59;5070822;28;20399;-74
2023/04/01 02:46:24;;;;;;;20.67;11.35;;;;;;;14.59;48.18;99970.16;5052897;28;20450;-74
2023/04/01 02:48:50;;;;;;;22.30;11.50;;;;;;;14.52;48.33;99967.50;5070800;28;20906;-75
2023/04/01 02:51:15;;;;;;;18.48;11.15;;;;;;;14.43;48.52;99966.13;5070974;28;20430;-75
2023/04/01 02:53:41;;;;;;;22.10;12.73;;;;;;;14.44;48.29;99963.25;5070736;28;20878;-75
2023/04/01 02:56:06;;;;;;;21.23;13.37;;;;;;;14.42;48.64;99962.63;5071265;28;20491;-75
2023/04/01 02:58:32;;;;;;;25.53;12.97;;;;;;;14.35;48.86;99964.53;5071210;28;20443;-75
2023/04/01 03:00:57;;;;;;;20.23;12.73;;;;;;;14.38;48.30;99948.06;5070667;28;20393;-74
2023/04/01 03:03:22;;;;;;;23.93;15.23;;;;;;;14.41;48.31;99944.19;5070529;28;20403;-75
2023/04/01 03:05:48;;;;;;;29.33;20.57;;;;;;;14.45;47.78;99943.53;5071190;28;20485;-74
2023/04/01 03:08:13;;;;;;;20.97;11.97;;;;;;;14.49;47.88;99947.38;5070727;28;20728;-75
2023/04/01 03:10:39;;;;;;;20.73;14.00;;;;;;;14.58;47.74;99945.31;5070990;28;20390;-74
2023/04/01 03:13:06;;;;;;;19.45;13.65;;;;;;;14.57;47.71;99949.00;5070819;28;20713;-75
2023/04/01 03:15:31;;;;;;;19.23;12.80;;;;;;;14.48;47.89;99936.97;5052547;28;20415;-74
2023/04/01 03:17:57;;;;;;;20.20;18.02;;;;;;;14.61;47.39;99946.75;5074018;28;20394;-75
2023/04/01 03:20:22;;;;;;;16.20;11.60;;;;;;;14.61;47.20;99923.56;5057046;28;20394;-76
2023/04/01 03:22:48;;;;;;;15.27;10.63;;;;;;;14.58;47.39;99931.97;5074569;28;20399;-75
2023/04/01 03:25:13;;;;;;;15.60;10.70;;;;;;;14.52;47.37;99930.16;5074613;28;20481;-75
2023/04/01 03:27:39;;;;;;;18.20;10.77;;;;;;;14.47;47.81;99929.97;5074428;28;20383;-75
2023/04/01 03:30:06;;;;;;;15.02;9.93;;;;;;;14.36;47.90;99930.66;5073973;28;20382;-75
2023/04/01 03:32:32;;;;;;;15.15;9.73;;;;;;;14.22;47.99;99924.59;5074371;28;20391;-76
2023/04/01 03:34:57;;;;;;;16.65;9.98;;;;;;;14.17;48.46;99925.25;5075147;28;20448;-74
2023/04/01 03:37:24;;;;;;;15.57;9.90;;;;;;;14.05;49.26;99926.94;5074428;28;20743;-74
2023/04/01 03:39:50;;;;;;;16.63;9.93;;;;;;;13.92;50.00;99928.63;5074165;28;20401;-74
2023/04/01 03:42:15;;;;;;;18.70;10.65;;;;;;;13.89;50.07;99930.88;5073978;28;20767;-75
2023/04/01 03:44:40;;;;;;;17.83;10.50;;;;;;;13.87;50.03;99925.78;5074097;28;20476;-75
2023/04/01 03:47:06;;;;;;;13.67;9.70;;;;;;;13.94;49.71;99923.09;5074292;28;20478;-75
2023/04/01 03:49:33;;;;;;;14.80;9.37;;;;;;;14.02;49.92;99919.34;5073855;28;20823;-74
2023/04/01 03:51:58;;;;;;;15.77;9.85;;;;;;;14.02;49.80;99922.03;5073495;28;20955;-76
2023/04/01 03:54:24;;;;;;;157.07;143.80;;;;;;;14.19;48.97;99919.66;5068234;28;20470;-75
2023/04/01 03:56:49;;;;;;;40.73;36.87;;;;;;;14.31;48.60;99918.81;5073919;28;20770;-75
2023/04/01 03:59:15;;;;;;;15.43;9.50;;;;;;;14.44;48.32;99923.25;5056039;28;20481;-74
2023/04/01 04:01:41;;;;;;;16.58;11.10;;;;;;;14.50;48.04;99914.38;5074549;28;20379;-75
2023/04/01 04:04:06;;;;;;;16.37;9.90;;;;;;;14.55;48.14;99911.06;5073736;28;20399;-74
2023/04/01 04:06:33;;;;;;;23.70;20.33;;;;;;;14.56;48.03;99902.00;5073927;28;20387;-75
2023/04/01 04:08:58;;;;;;;22.13;19.42;;;;;;;14.60;47.90;99899.75;5073746;28;20415;-75
2023/04/01 04:11:24;;;;;;;18.02;10.70;;;;;;;14.57;48.12;99901.00;5056141;28;20803;-74
2023/04/01 04:13:49;;;;;;;19.13;10.37;;;;;;;14.67;48.21;99908.53;5073542;28;20386;-74
2023/04/01 04:16:16;;;;;;;17.92;10.00;;;;;;;14.66;47.77;99902.38;5073440;28;20476;-74
2023/04/01 04:18:42;;;;;;;15.25;10.68;;;;;;;14.75;47.85;99907.44;5073642;28;20874;-74
2023/04/01 04:21:12;;;;;;;13.00;9.93;;;;;;;14.78;47.55;99899.00;5073453;28;20391;-75
2023/04/01 04:23:38;;;;;;;16.85;10.27;;;;;;;14.68;48.17;99897.66;5052133;28;20403;-74
2023/04/01 04:26:06;;;;;;;18.53;10.63;;;;;;;14.54;48.68;99906.75;5061382;28;20800;-74
2023/04/01 04:28:32;;;;;;;18.70;9.88;;;;;;;14.36;49.37;99902.16;5072253;28;20390;-75
2023/04/01 04:30:58;;;;;;;20.90;11.27;;;;;;;14.18;50.14;99910.88;5054684;28;20470;-75
2023/04/01 04:33:24;;;;;;;19.83;12.90;;;;;;;14.13;50.22;99908.84;5078903;28;20461;-75
2023/04/01 04:35:51;;;;;;;24.13;11.80;;;;;;;14.17;50.24;99913.75;5072632;28;20870;-75
2023/04/01 04:38:17;;;;;;;17.55;11.98;;;;;;;14.25;50.15;99906.31;5073032;28;20422;-75
2023/04/01 04:40:44;;;;;;;21.63;11.85;;;;;;;14.27;50.02;99888.25;5066239;28;20403;-75
2023/04/01 04:43:14;;;;;;;21.05;12.05;;;;;;;14.26;49.82;99893.78;5065282;28;20404;-75
2023/04/01 04:45:40;;;;;;;21.70;12.73;;;;;;;14.14;50.00;99875.81;5063216;28;20470;-74
2023/04/01 04:48:08;;;;;;;29.48;14.85;;;;;;;14.34;49.60;99874.88;5069580;28;20618;-74
2023/04/01 04:50:33;;;;;;;25.25;13.48;;;;;;;14.50;49.68;99868.22;5058290;28;20410;-74
2023/04/01 04:52:59;;;;;;;25.20;14.57;;;;;;;14.42;49.59;99879.97;5084100;28;20390;-74
2023/04/01 04:55:24;;;;;;;19.17;10.17;;;;;;;14.38;48.93;99875.28;5084549;28;20448;-76
2023/04/01 04:57:50;;;;;;;13.07;7.20;;;;;;;14.40;48.40;99868.69;5078184;28;20455;-75
2023/04/01 05:00:16;;;;;;;16.57;7.43;;;;;;;14.60;48.15;99865.91;5095773;28;20453;-74
2023/04/01 05:02:41;;;;;;;17.92;7.50;;;;;;;14.75;47.92;99857.59;5095568;28;20543;-75
2023/04/01 05:05:07;;;;;;;18.87;9.50;;;;;;;14.88;47.71;99856.66;5098645;28;20409;-76
2023/04/01 05:07:33;;;;;;;18.27;10.23;;;;;;;14.88;48.04;99852.13;5067151;28;20853;-76
2023/04/01 05:09:59;;;;;;;23.90;12.60;;;;;;;14.90;48.33;99862.59;5081713;28;20708;-76
2023/04/01 05:12:24;;;;;;;16.15;8.30;;;;;;;14.87;48.44;99861.19;5082452;28;20905;-79
2023/04/01 05:14:50;;;;;;;19.37;9.00;;;;;;;14.91;48.43;99854.38;5071089;28;20409;-79
2023/04/01 05:17:15;;;;;;;20.97;10.83;;;;;;;15.07;47.83;99853.00;5086514;28;20942;-79
2023/04/01 05:19:41;;;;;;;20.70;10.93;;;;;;;15.16;48.89;99860.69;5072250;28;20481;-80
2023/04/01 05:22:06;;;;;;;21.97;11.63;;;;;;;15.14;50.63;99874.25;5087353;28;20439;-80
2023/04/01 05:24:32;;;;;;;17.33;9.80;;;;;;;15.00;51.13;99870.91;5091379;28;20814;-79
2023/04/01 05:26:58;;;;;;;20.73;9.70;;;;;;;14.95;51.92;99872.63;5084936;28;20389;-81
2023/04/01 05:29:25;;;;;;;17.58;9.77;;;;;;;14.75;53.09;99876.25;5096409;28;20381;-79
2023/04/01 05:31:51;;;;;;;22.90;10.20;;;;;;;14.53;53.77;99870.44;5095591;28;20395;-79
2023/04/01 05:34:16;;;;;;;22.03;11.03;;;;;;;14.38;54.21;99853.94;5092463;28;20377;-80
2023/04/01 05:36:42;;;;;;;22.70;13.10;;;;;;;14.23;55.15;99854.25;5092290;28;20396;-77
2023/04/01 05:39:08;;;;;;;23.40;13.30;;;;;;;14.19;55.29;99850.38;5091902;28;20389;-79
2023/04/01 05:41:37;;;;;;;22.93;12.30;;;;;;;14.15;55.31;99858.81;5091113;28;20381;-78
2023/04/01 05:44:03;;;;;;;25.00;15.00;;;;;;;14.14;54.83;99862.50;5091055;28;20777;-78
2023/04/01 05:46:29;;;;;;;27.45;14.65;;;;;;;14.15;54.87;99858.81;5090727;28;20400;-78
2023/04/01 05:48:54;;;;;;;27.80;14.83;;;;;;;14.13;55.01;99868.88;5091560;28;20397;-77
2023/04/01 05:51:20;;;;;;;20.55;13.20;;;;;;;14.18;55.15;99870.88;5092548;28;20419;-78
2023/04/01 05:53:46;;;;;;;24.48;12.93;;;;;;;14.27;55.05;99877.59;5093121;28;20534;-80
2023/04/01 05:56:12;;;;;;;26.88;15.65;;;;;;;14.34;54.52;99886.38;5072663;28;20397;-79
2023/04/01 05:58:39;;;;;;;28.88;15.50;;;;;;;14.23;54.70;99886.25;5091008;28;20385;-81
2023/04/01 06:01:07;;;;;;;26.50;15.85;;;;;;;14.32;55.26;99892.97;5069450;28;20393;-81
2023/04/01 06:03:33;;;;;;;32.70;16.58;;;;;;;14.33;55.36;99895.41;5090938;28;20496;-80
2023/04/01 06:06:00;;;;;;;32.28;17.98;;;;;;;14.29;55.82;99907.50;5091433;28;20381;-79
2023/04/01 06:08:27;;;;;;;34.20;18.63;;;;;;;14.34;55.97;99912.22;5091728;28;20411;-82
2023/04/01 06:11:16;;;;;;;36.22;19.65;;;;;;;14.38;55.88;99915.28;5091498;28;20378;-82
2023/04/01 06:13:58;;;;;;;37.33;20.52;;;;;;;14.41;55.99;99921.00;5090325;28;20462;-82
2023/04/01 06:17:01;;;;;;;30.95;16.83;;;;;;;14.24;56.51;99917.19;5080471;28;20916;-80
2023/04/01 06:19:45;;;;;;;23.95;13.20;;;;;;;14.21;56.23;99930.97;5088142;28;20859;-80
2023/04/01 06:22:15;;;;;;;29.60;15.48;;;;;;;14.33;56.23;99935.41;5093351;28;20438;-81
2023/04/01 06:25:05;;;;;;;21.00;13.87;;;;;;;14.32;55.93;99946.28;5092598;28;20461;-81
2023/04/01 06:27:42;;;;;;;30.98;16.02;;;;;;;14.34;56.01;99949.53;5094038;28;20373;-81
2023/04/01 06:30:18;;;;;;;29.13;15.63;;;;;;;14.46;55.97;99960.34;5091143;28;20382;-81
2023/04/01 06:32:56;;;;;;;30.88;16.88;;;;;;;14.46;56.34;99960.34;5088931;28;20388;-82
2023/04/01 06:35:48;;;;;;;30.48;16.77;;;;;;;14.41;56.17;99970.84;5092283;28;20880;-81
2023/04/01 06:38:38;;;;;;;46.30;22.27;;;;;;;14.30;56.54;99978.47;5075691;28;20393;-81
2023/04/01 06:41:44;;;;;;;41.47;22.88;;;;;;;14.17;57.50;99988.38;5095010;28;20403;-82
2023/04/01 06:44:25;;;;;;;26.77;17.10;;;;;;;13.99;58.42;99991.72;5049739;28;20413;-83
2023/04/01 06:46:59;;;;;;;32.60;18.77;;;;;;;14.13;58.26;100004.81;5097653;28;20392;-82
2023/04/01 06:49:33;;;;;;;35.47;22.55;;;;;;;14.22;57.90;100009.88;5097437;28;20396;-84
2023/04/01 06:52:25;;;;;;;27.08;19.20;;;;;;;14.02;58.45;100001.97;5083527;28;20403;-85
2023/04/01 06:55:01;;;;;;;32.13;21.20;;;;;;;13.95;58.40;100002.81;5092486;28;20725;-82
2023/04/01 06:57:43;;;;;;;24.48;15.43;;;;;;;13.91;58.64;100012.22;5070519;28;20378;-84
2023/04/01 07:00:48;;;;;;;29.23;18.10;;;;;;;13.81;58.76;100011.88;5091545;28;20398;-84
2023/04/01 07:03:20;;;;;;;22.17;16.05;;;;;;;13.86;59.23;100016.56;5075611;28;20492;-83
2023/04/01 07:05:46;;;;;;;19.83;13.98;;;;;;;13.77;59.98;100027.44;5095467;28;20385;-83
2023/04/01 07:08:25;;;;;;;22.23;16.10;;;;;;;13.80;59.87;100033.38;5097482;28;20388;-84
2023/04/01 07:10:54;;;;;;;20.58;13.02;;;;;;;13.82;59.23;100026.81;5094731;28;20419;-86
2023/04/01 07:13:41;;;;;;;22.75;12.82;;;;;;;13.65;59.87;100023.78;5096009;28;20392;-84
2023/04/01 07:16:19;;;;;;;17.00;10.10;;;;;;;13.54;60.18;100027.03;5076668;28;20452;-83
2023/04/01 07:18:52;;;;;;;21.08;13.45;;;;;;;13.53;59.83;100030.75;5092585;28;20862;-84
2023/04/01 07:21:44;;;;;;;23.05;13.68;;;;;;;13.50;60.05;100025.81;5069835;28;20381;-85
2023/04/01 07:24:36;;;;;;;20.83;11.90;;;;;;;13.51;60.49;100024.81;5095949;28;20393;-84
2023/04/01 07:27:01;;;;;;;18.60;10.70;;;;;;;13.54;59.92;100008.41;5056108;28;20399;-84
2023/04/01 07:29:27;;;;;;;15.77;9.73;;;;;;;13.61;59.80;100003.06;5060090;28;20379;-83
2023/04/01 07:32:30;;;;;;;14.80;9.87;;;;;;;13.70;60.03;99991.19;5096215;28;20468;-84
2023/04/01 07:35:38;;;;;;;16.00;11.02;;;;;;;13.75;60.34;99983.38;5079089;28;20385;-84
2023/04/01 07:38:07;;;;;;;27.02;16.55;;;;;;;13.65;60.96;99967.84;5101033;28;20934;-84
2023/04/01 07:40:48;;;;;;;19.52;12.02;;;;;;;13.57;61.08;99939.56;5101948;28;20377;-85
2023/04/01 07:43:32;;;;;;;16.95;9.30;;;;;;;13.39;61.88;99931.44;5094724;28;20779;-87
2023/04/01 07:46:17;;;;;;;16.17;10.07;;;;;;;13.48;62.14;99910.72;5084121;28;20369;-85
2023/04/01 07:48:43;;;;;;;34.10;17.60;;;;;;;13.49;62.41;99881.25;5080095;28;20447;-85
2023/04/01 07:51:14;;;;;;;15.50;9.70;;;;;;;13.56;62.87;99883.88;5082553;28;20365;-82
2023/04/01 07:54:04;;;;;;;14.93;9.38;;;;;;;13.70;62.89;99873.97;5080376;28;20370;-82
2023/04/01 07:56:45;;;;;;;18.27;9.38;;;;;;;13.72;62.81;99867.44;5087622;28;20417;-81
2023/04/01 07:59:23;;;;;;;16.08;9.55;;;;;;;13.76;63.04;99881.97;5099662;28;20393;-81
2023/04/01 08:01:51;;;;;;;16.95;9.80;;;;;;;13.79;62.77;99872.72;5102685;28;20375;-81
2023/04/01 08:04:22;;;;;;;20.15;11.88;;;;;;;14.04;62.76;99867.47;5096292;28;20956;-80
2023/04/01 08:07:16;;;;;;;23.73;12.45;;;;;;;14.06;62.38;99859.25;5091044;28;20464;-80
2023/04/01 08:09:59;;;;;;;21.70;12.82;;;;;;;14.07;62.28;99851.06;5080095;28;20371;-78
2023/04/01 08:12:31;;;;;;;17.48;9.68;;;;;;;13.97;62.90;99845.38;5068503;28;20436;-80
2023/04/01 08:15:04;;;;;;;19.23;8.77;;;;;;;13.98;62.85;99833.69;5083116;28;20472;-80
2023/04/01 08:17:47;;;;;;;15.32;7.55;;;;;;;14.04;62.59;99829.34;5083341;28;20377;-81
2023/04/01 08:20:13;;;;;;;19.63;8.75;;;;;;;14.18;62.40;99841.56;5066331;28;20875;-77
2023/04/01 08:22:47;;;;;;;19.27;10.63;;;;;;;14.20;62.21;99831.50;5087187;28;20403;-78
2023/04/01 08:25:25;;;;;;;20.20;9.57;;;;;;;14.22;62.54;99823.28;5088426;28;20377;-80
2023/04/01 08:27:57;;;;;;;17.45;8.85;;;;;;;14.38;61.96;99835.28;5093505;28;20385;-83
2023/04/01 08:30:47;;;;;;;14.85;8.10;;;;;;;14.56;62.02;99832.66;5080799;28;20377;-83
2023/04/01 08:33:27;;;;;;;15.27;6.93;;;;;;;14.73;61.71;99833.00;5085670;28;20380;-78
2023/04/01 08:36:04;;;;;;;12.63;7.45;;;;;;;14.88;61.62;99821.97;5085520;28;20389;-81
2023/04/01 08:38:51;;;;;;;12.60;6.15;;;;;;;14.89;61.30;99827.09;5087259;28;20379;-84
2023/04/01 08:41:54;;;;;;;17.67;6.68;;;;;;;14.81;61.43;99837.22;5086035;28;20378;-85
2023/04/01 08:44:47;;;;;;;15.18;6.18;;;;;;;14.78;61.29;99825.13;5073157;28;20399;-86
2023/04/01 08:47:23;;;;;;;11.75;5.43;;;;;;;14.70;61.41;99823.56;5084159;28;20455;-82
2023/04/01 08:50:24;;;;;;;11.50;5.03;;;;;;;14.58;61.67;99827.16;5075080;28;20373;-82
2023/04/01 08:53:18;;;;;;;12.57;4.90;;;;;;;14.53;61.62;99833.09;5036151;28;20419;-81
2023/04/01 08:55:53;;;;;;;14.98;5.30;;;;;;;14.49;61.66;99818.56;5078338;28;20377;-80
2023/04/01 08:58:46;;;;;;;13.30;5.20;;;;;;;14.56;61.40;99853.19;5090648;28;20403;-79
2023/04/01 09:01:50;;;;;;;13.80;7.05;;;;;;;14.63;61.14;99838.81;5083807;28;20389;-81
2023/04/01 09:04:31;;;;;;;13.10;6.38;;;;;;;14.68;61.36;99838.16;5085364;28;20415;-80
2023/04/01 09:07:05;;;;;;;25.70;12.32;;;;;;;14.84;60.86;99844.78;5087180;28;20520;-81
2023/04/01 09:09:46;;;;;;;19.47;9.20;;;;;;;14.80;60.91;99819.56;5080198;28;20760;-85
2023/04/01 09:12:37;;;;;;;14.35;6.75;;;;;;;14.81;61.12;99819.34;5071370;28;21089;-86
2023/04/01 09:15:21;;;;;;;14.15;6.22;;;;;;;14.82;61.21;99814.81;5065416;28;20375;-86
2023/04/01 09:18:04;;;;;;;16.10;8.57;;;;;;;14.87;61.23;99823.00;5086729;28;20405;-83
2023/04/01 09:20:41;;;;;;;16.90;8.07;;;;;;;14.83;61.15;99814.59;5080865;28;20456;-82
2023/04/01 09:23:30;;;;;;;16.42;8.57;;;;;;;14.86;61.33;99816.84;5074190;28;20512;-81
2023/04/01 09:26:39;;;;;;;15.32;7.93;;;;;;;14.87;61.14;99818.50;5027140;28;20474;-83
2023/04/01 09:29:19;;;;;;;15.10;8.20;;;;;;;14.75;61.83;99806.06;5062101;28;20734;-82
2023/04/01 09:32:03;;;;;;;17.52;8.32;;;;;;;14.73;62.00;99816.97;5082273;28;20371;-81
2023/04/01 09:34:51;;;;;;;30.73;17.90;;;;;;;14.87;61.45;99820.31;5080609;28;20375;-81
2023/04/01 09:37:27;;;;;;;20.57;14.33;;;;;;;15.00;61.34;99830.03;5081610;28;20390;-81
2023/04/01 09:40:09;;;;;;;105.70;96.88;;;;;;;14.99;61.18;99831.91;5080870;28;20409;-80
2023/04/01 09:43:03;;;;;;;16.77;10.50;;;;;;;14.97;61.04;99823.31;5065358;28;20399;-80
2023/04/01 09:45:47;;;;;;;17.05;10.30;;;;;;;15.02;61.29;99798.66;5060290;28;20387;-83
2023/04/01 09:48:18;;;;;;;20.67;18.25;;;;;;;15.12;61.33;99792.78;5080813;28;20384;-84
2023/04/01 09:51:11;;;;;;;13.88;9.93;;;;;;;15.20;61.52;99773.81;5070442;28;20390;-81
2023/04/01 09:53:45;;;;;;;15.00;8.75;;;;;;;15.19;62.04;99758.81;5081756;28;20847;-80
2023/04/01 09:56:38;;;;;;;17.90;13.47;;;;;;;15.20;62.34;99736.44;5084215;28;20988;-79
2023/04/01 09:59:51;;;;;;;13.63;8.23;;;;;;;15.25;63.02;99736.53;5082333;28;20459;-80
2023/04/01 10:02:20;;;;;;;18.55;9.95;;;;;;;15.16;62.93;99743.22;5069534;28;20397;-79
2023/04/01 10:05:07;;;;;;;17.13;13.35;;;;;;;15.26;62.37;99771.03;5084372;28;20393;-80
2023/04/01 10:08:03;;;;;;;13.93;11.60;;;;;;;15.37;62.58;99779.34;5073035;28;20927;-79
2023/04/01 10:10:41;;;;;;;18.23;9.13;;;;;;;15.41;61.87;99788.53;5075244;28;20381;-77
2023/04/01 10:13:28;;;;;;;23.45;17.42;;;;;;;15.55;61.26;99779.31;5075171;28;20378;-77
2023/04/01 10:16:21;;;;;;;16.38;8.93;;;;;;;15.55;60.78;99778.50;5081422;28;20869;-78
2023/04/01 10:18:47;;;;;;;18.33;8.55;;;;;;;15.55;60.50;99779.31;5063783;28;20438;-78
2023/04/01 10:21:41;;;;;;;17.03;10.37;;;;;;;15.70;60.56;99776.25;5083937;28;20913;-81
2023/04/01 10:24:44;;;;;;;17.13;8.80;;;;;;;15.76;60.46;99787.91;5056937;28;20445;-78
2023/04/01 10:27:35;;;;;;;17.03;8.30;;;;;;;15.76;60.30;99767.34;5076189;28;20382;-78
2023/04/01 10:30:31;;;;;;;19.13;9.45;;;;;;;15.68;60.25;99756.94;5045799;28;20397;-77
2023/04/01 10:33:41;;;;;;;15.75;10.48;;;;;;;15.88;60.04;99734.50;5082869;28;20398;-79
2023/04/01 10:36:33;;;;;;;17.70;9.40;;;;;;;15.72;59.99;99718.06;5041925;28;20852;-81
2023/04/01 10:39:29;;;;;;;16.80;9.10;;;;;;;15.73;59.91;99718.84;5053579;28;20387;-79
2023/04/01 10:42:41;;;;;;;20.02;14.60;;;;;;;15.65;59.91;99730.69;5050760;28;20911;-81
2023/04/01 10:45:27;;;;;;;13.70;7.80;;;;;;;15.59;60.17;99740.44;5080793;28;20400;-82
2023/04/01 10:48:20;;;;;;;13.10;6.80;;;;;;;15.66;59.93;99735.81;5067627;28;20388;-79
2023/04/01 10:51:10;;;;;;;19.30;10.02;;;;;;;15.83;59.63;99733.31;5083327;28;20851;-79
2023/04/01 10:54:03;;;;;;;19.08;10.68;;;;;;;15.91;59.34;99739.38;5078117;28;20367;-80
2023/04/01 10:56:48;;;;;;;18.30;9.83;;;;;;;15.92;59.50;99722.28;5077087;28;20404;-78
2023/04/01 10:59:42;;;;;;;17.73;8.32;;;;;;;16.02;59.55;99730.56;5080421;28;20384;-79
2023/04/01 11:02:39;;;;;;;20.73;12.02;;;;;;;16.09;59.57;99741.97;5085039;28;20385;-81
2023/04/01 11:05:23;;;;;;;20.83;8.95;;;;;;;16.13;59.55;99735.09;5069467;28;20416;-83
2023/04/01 11:08:24;;;;;;;18.10;7.38;;;;;;;16.28;59.58;99717.81;5066819;28;20385;-84
2023/04/01 11:11:11;;;;;;;19.08;9.38;;;;;;;16.32;59.13;99708.28;5077564;28;20410;-81
2023/04/01 11:14:11;;;;;;;15.77;6.85;;;;;;;16.28;58.68;99704.44;5085986;28;20393;-80
2023/04/01 11:17:08;;;;;;;14.13;4.70;;;;;;;16.34;57.90;99707.00;5066957;28;20415;-80
2023/04/01 11:20:11;;;;;;;7.20;3.00;;;;;;;16.46;56.74;99703.50;5084564;28;20404;-79
2023/04/01 11:23:07;;;;;;;10.90;3.70;;;;;;;16.53;56.97;99704.19;5046077;28;20750;-77
2023/04/01 11:26:04;;;;;;;11.25;4.97;;;;;;;16.67;56.21;99691.38;5079312;28;20418;-77
2023/04/01 11:29:02;;;;;;;13.13;4.87;;;;;;;16.62;56.09;99682.22;5061562;28;20481;-78
2023/04/01 11:31:49;;;;;;;13.30;4.63;;;;;;;16.67;56.19;99678.00;5080002;28;20390;-76
2023/04/01 11:34:40;;;;;;;10.05;2.70;;;;;;;16.52;54.79;99660.59;5083580;28;20391;-77
2023/04/01 11:37:16;;;;;;;6.60;2.10;;;;;;;16.52;54.95;99660.59;5079209;28;20529;-78
2023/04/01 11:40:16;;;;;;;6.63;1.98;;;;;;;16.58;54.01;99667.69;5082417;28;20523;-78
2023/04/01 11:43:00;;;;;;;7.57;1.95;;;;;;;16.69;53.32;99657.19;5075337;28;20497;-77
2023/04/01 11:45:52;;;;;;;5.75;2.20;;;;;;;16.84;53.33;99640.66;5084583;28;20757;-77
2023/04/01 11:48:42;;;;;;;5.22;2.00;;;;;;;16.82;52.49;99632.84;5074606;28;20385;-77
2023/04/01 11:51:50;;;;;;;7.18;3.05;;;;;;;16.85;51.99;99642.28;5094251;28;20404;-77
2023/04/01 11:54:47;;;;;;;7.32;1.63;;;;;;;16.75;51.26;99638.31;5109648;28;20405;-77
2023/04/01 11:57:34;;;;;;;3.72;2.00;;;;;;;16.94;51.48;99659.59;5114061;28;20373;-77
2023/04/01 12:00:10;;;;;;;4.57;2.05;;;;;;;16.97;50.97;99640.38;5106606;28;20405;-77